Nikolaos Gs — V7BI2 — position and weather

sailwx.info

Track history (hours):
 
Tides and Currents Weather Stations Pressure Air Temp Water Temp Dewpoint Dewpoint Depression Visibility Wind Speed Wind Dir Waves Ship Positions

Nikolaos Gs

Last reported at 2018-Jan-12 14:59 UTC. Time now 2018-Jan-19 15:56 UTC.
Position N 32°10' E 034°28'.

Length 169 m; draft 5 m.

Type: Cargo ship. MMSI: 538005146.

Date/timePositionNaut miles runAvg speedWind from/ knotsBaromVisibWave heightAir tempDewpointWater temp
2018-Jan-12 14:59N 32°10' E 034°28'1 0.8
2018-Jan-12 14:17N 32°10' E 034°28'0 0.9
2018-Jan-12 13:59N 32°10' E 034°27'0 0.9
2018-Jan-12 13:29N 32°10' E 034°27'3 0.4
2018-Jan-12 07:22N 32°12' E 034°25'511.3
2018-Jan-12 06:58N 32°15' E 034°29'511.1
2018-Jan-12 06:30N 32°19' E 034°33'3 6.1
2018-Jan-12 05:58N 32°21' E 034°36'1 1.2
2018-Jan-12 05:28N 32°21' E 034°35'1 1.3
2018-Jan-12 04:58N 32°21' E 034°35'1 1.4
2018-Jan-12 04:28N 32°20' E 034°34'1 1.6
2018-Jan-12 03:58N 32°19' E 034°33'1 1.6
2018-Jan-12 03:28N 32°19' E 034°33'1 1.5
2018-Jan-12 02:58N 32°18' E 034°32'1 1.5
2018-Jan-12 02:28N 32°18' E 034°32'1 1.5
2018-Jan-12 01:58N 32°17' E 034°31'1 1.6
2018-Jan-12 01:28N 32°17' E 034°30'3 1.7
2018-Jan-11 23:28N 32°15' E 034°27'1 1.5
2018-Jan-11 22:58N 32°14' E 034°26'1 1.4
2018-Jan-11 21:55N 32°13' E 034°25'1 1.2
2018-Jan-11 21:25N 32°13' E 034°25'0 0.8
2018-Jan-11 20:58N 32°12' E 034°25'0 0.6
2018-Jan-11 20:28N 32°12' E 034°25'1 2.6
2018-Jan-11 20:00N 32°12' E 034°26'611.8
2018-Jan-11 19:30N 32°18' E 034°28'612.3
2018-Jan-11 19:00N 32°24' E 034°30'612.3
2018-Jan-11 18:30N 32°30' E 034°32'612.0
2018-Jan-11 18:00N 32°35' E 034°34'612.1
2018-Jan-11 17:30N 32°41' E 034°36'612.0
2018-Jan-11 17:00N 32°47' E 034°37'612.2
2018-Jan-11 16:30N 32°53' E 034°39'611.0
2018-Jan-11 15:56N 32°55' E 034°46'511.8
2018-Jan-11 15:30N 32°55' E 034°52'  
2018-Jan-05 08:20N 32°49' E 035°02'0 0.0
2018-Jan-05 07:38N 32°49' E 035°02'0 0.0
2018-Jan-05 07:29N 32°49' E 035°02'0 0.0
2018-Jan-05 06:26N 32°49' E 035°02'0 0.0
2018-Jan-05 05:56N 32°49' E 035°02'0 0.0
2018-Jan-05 05:29N 32°49' E 035°02'0 0.0
2018-Jan-05 04:59N 32°49' E 035°02'0 0.0
2018-Jan-05 04:29N 32°49' E 035°02'0 0.0
2018-Jan-05 03:59N 32°49' E 035°02'0 0.0
2018-Jan-05 02:08N 32°49' E 035°02'0 0.0
2018-Jan-05 01:59N 32°49' E 035°02'0 0.0
2018-Jan-04 19:50N 32°49' E 035°02'0 0.0
2018-Jan-04 19:14N 32°49' E 035°02'0 0.0
2018-Jan-04 18:56N 32°49' E 035°02'0 0.0
2018-Jan-04 07:50N 32°49' E 035°02'0 0.0
2018-Jan-04 07:26N 32°49' E 035°02'0 0.0
2018-Jan-04 06:40N 32°49' E 035°02'0 0.0
2018-Jan-04 06:19N 32°49' E 035°02'0 0.0
2018-Jan-04 05:55N 32°49' E 035°02'0 0.0
2018-Jan-04 01:34N 32°49' E 035°02'0 0.0
2018-Jan-04 01:25N 32°49' E 035°02'0 0.0
2018-Jan-04 00:55N 32°49' E 035°02'0 0.0
2018-Jan-03 21:37N 32°49' E 035°02'0 0.0
2018-Jan-03 21:25N 32°49' E 035°02'0 0.0
2018-Jan-03 20:43N 32°49' E 035°02'0 0.0
2018-Jan-03 20:28N 32°49' E 035°02'0 0.0
2018-Jan-03 19:01N 32°49' E 035°02'0 0.0
2018-Jan-03 18:46N 32°49' E 035°02'0 0.0
2018-Jan-03 18:25N 32°49' E 035°02'0 0.0
2018-Jan-03 15:34N 32°49' E 035°02'0 0.0
2018-Jan-03 15:19N 32°49' E 035°02'0 0.0
2018-Jan-03 14:58N 32°49' E 035°02'0 0.0
2018-Jan-03 13:31N 32°49' E 035°02'0 0.0
2018-Jan-03 13:22N 32°49' E 035°02'0 0.0
2018-Jan-03 12:00N 32°49' E 035°02'2 2.7
2018-Jan-03 11:21N 32°50' E 035°01'  
Track history (hours):
 
Tides and Currents Weather Stations Pressure Air Temp Water Temp Dewpoint Dewpoint Depression Visibility Wind Speed Wind Dir Waves Ship Positions

Nikolaos Gs

Last reported at 2018-Jan-12 14:59 UTC. Time now 2018-Jan-19 15:56 UTC.
Position N 32°10' E 034°28'.

Length 169 m; draft 5 m.

Type: Cargo ship. MMSI: 538005146.

Date/timePositionNaut miles runAvg speedWind from/ knotsBaromVisibWave heightAir tempDewpointWater temp
2018-Jan-12 14:59N 32°10' E 034°28'1 0.8
2018-Jan-12 14:17N 32°10' E 034°28'0 0.9
2018-Jan-12 13:59N 32°10' E 034°27'0 0.9
2018-Jan-12 13:29N 32°10' E 034°27'3 0.4
2018-Jan-12 07:22N 32°12' E 034°25'511.3
2018-Jan-12 06:58N 32°15' E 034°29'511.1
2018-Jan-12 06:30N 32°19' E 034°33'3 6.1
2018-Jan-12 05:58N 32°21' E 034°36'1 1.2
2018-Jan-12 05:28N 32°21' E 034°35'1 1.3
2018-Jan-12 04:58N 32°21' E 034°35'1 1.4
2018-Jan-12 04:28N 32°20' E 034°34'1 1.6
2018-Jan-12 03:58N 32°19' E 034°33'1 1.6
2018-Jan-12 03:28N 32°19' E 034°33'1 1.5
2018-Jan-12 02:58N 32°18' E 034°32'1 1.5
2018-Jan-12 02:28N 32°18' E 034°32'1 1.5
2018-Jan-12 01:58N 32°17' E 034°31'1 1.6
2018-Jan-12 01:28N 32°17' E 034°30'3 1.7
2018-Jan-11 23:28N 32°15' E 034°27'1 1.5
2018-Jan-11 22:58N 32°14' E 034°26'1 1.4
2018-Jan-11 21:55N 32°13' E 034°25'1 1.2
2018-Jan-11 21:25N 32°13' E 034°25'0 0.8
2018-Jan-11 20:58N 32°12' E 034°25'0 0.6
2018-Jan-11 20:28N 32°12' E 034°25'1 2.6
2018-Jan-11 20:00N 32°12' E 034°26'611.8
2018-Jan-11 19:30N 32°18' E 034°28'612.3
2018-Jan-11 19:00N 32°24' E 034°30'612.3
2018-Jan-11 18:30N 32°30' E 034°32'612.0
2018-Jan-11 18:00N 32°35' E 034°34'612.1
2018-Jan-11 17:30N 32°41' E 034°36'612.0
2018-Jan-11 17:00N 32°47' E 034°37'612.2
2018-Jan-11 16:30N 32°53' E 034°39'611.0
2018-Jan-11 15:56N 32°55' E 034°46'511.8
2018-Jan-11 15:30N 32°55' E 034°52'  
2018-Jan-05 08:20N 32°49' E 035°02'0 0.0
2018-Jan-05 07:38N 32°49' E 035°02'0 0.0
2018-Jan-05 07:29N 32°49' E 035°02'0 0.0
2018-Jan-05 06:26N 32°49' E 035°02'0 0.0
2018-Jan-05 05:56N 32°49' E 035°02'0 0.0
2018-Jan-05 05:29N 32°49' E 035°02'0 0.0
2018-Jan-05 04:59N 32°49' E 035°02'0 0.0
2018-Jan-05 04:29N 32°49' E 035°02'0 0.0
2018-Jan-05 03:59N 32°49' E 035°02'0 0.0
2018-Jan-05 02:08N 32°49' E 035°02'0 0.0
2018-Jan-05 01:59N 32°49' E 035°02'0 0.0
2018-Jan-04 19:50N 32°49' E 035°02'0 0.0
2018-Jan-04 19:14N 32°49' E 035°02'0 0.0
2018-Jan-04 18:56N 32°49' E 035°02'0 0.0
2018-Jan-04 07:50N 32°49' E 035°02'0 0.0
2018-Jan-04 07:26N 32°49' E 035°02'0 0.0
2018-Jan-04 06:40N 32°49' E 035°02'0 0.0
2018-Jan-04 06:19N 32°49' E 035°02'0 0.0
2018-Jan-04 05:55N 32°49' E 035°02'0 0.0
2018-Jan-04 01:34N 32°49' E 035°02'0 0.0
2018-Jan-04 01:25N 32°49' E 035°02'0 0.0
2018-Jan-04 00:55N 32°49' E 035°02'0 0.0
2018-Jan-03 21:37N 32°49' E 035°02'0 0.0
2018-Jan-03 21:25N 32°49' E 035°02'0 0.0
2018-Jan-03 20:43N 32°49' E 035°02'0 0.0
2018-Jan-03 20:28N 32°49' E 035°02'0 0.0
2018-Jan-03 19:01N 32°49' E 035°02'0 0.0
2018-Jan-03 18:46N 32°49' E 035°02'0 0.0
2018-Jan-03 18:25N 32°49' E 035°02'0 0.0
2018-Jan-03 15:34N 32°49' E 035°02'0 0.0
2018-Jan-03 15:19N 32°49' E 035°02'0 0.0
2018-Jan-03 14:58N 32°49' E 035°02'0 0.0
2018-Jan-03 13:31N 32°49' E 035°02'0 0.0
2018-Jan-03 13:22N 32°49' E 035°02'0 0.0
2018-Jan-03 12:00N 32°49' E 035°02'2 2.7
2018-Jan-03 11:21N 32°50' E 035°01'  

Dump ship's entire track history